HDAM/JIB METAR and TAF weather

Enter ICAO airport designator
Station Type Date Time Source
HDAM METAR 2019/02/22 16:00 UTC NOAA

HDAM 221600Z 10008KT 9999 SCT023 27/22 Q1013


Station Type Date Time Source
HDAM Decoded METAR 2019/02/22 16:00 UTC NOAA

Djibouti \ Ambouli, Djibouti (HDAM) 11-33N 043-10E
Feb 22, 2019 - 11:00 AM EST / 2019.02.22 1600 UTC
Wind: from the E (100 degrees) at 9 MPH (8 KT):0
Visibility: greater than 7 mile(s):0
Sky conditions: partly cloudy
Temperature: 80 F (27 C)
Dew Point: 71 F (22 C)
Relative Humidity: 74%
Pressure (altimeter): 29.91 in. Hg (1013 hPa)
ob: HDAM 221600Z 10008KT 9999 SCT023 27/22 Q1013
cycle: 16

Station Type Date Time Source
HDAM TAF 2019/02/17 18:39 UTC NOAA

TAF TAF HDAM 171700Z 1718/1818 12010KT 9999 SCT020
BECMG 1800/1806 08010KT FEW023
BECMG 1806/1812 VRB05KT BKN020


Example: see airport list